createdAt,value
2019-01-23T00:00:39.350Z,31.93
2019-01-23T00:03:30.889Z,38.23
2019-01-23T00:06:00.285Z,35.27
2019-01-23T00:08:35.837Z,38.13
2019-01-23T00:11:05.235Z,33.80
2019-01-23T00:13:47.839Z,33.77
2019-01-23T00:16:17.348Z,35.87
2019-01-23T00:18:46.750Z,37.80
2019-01-23T00:21:16.206Z,37.27
2019-01-23T00:23:45.669Z,35.03
2019-01-23T00:26:16.752Z,35.17
2019-01-23T00:28:46.177Z,36.53
2019-01-23T00:31:15.748Z,34.07
2019-01-23T00:33:45.167Z,38.00
2019-01-23T00:36:14.650Z,37.10
2019-01-23T00:38:44.034Z,37.73
2019-01-23T00:41:19.582Z,34.43
2019-01-23T00:43:48.981Z,35.63
2019-01-23T00:46:31.019Z,38.40
2019-01-23T00:49:00.447Z,37.37
2019-01-23T00:51:29.895Z,38.50
2019-01-23T00:54:11.753Z,23.53
2019-01-23T00:56:41.191Z,28.03
2019-01-23T00:59:10.595Z,33.20
2019-01-23T01:01:40.430Z,31.07
2019-01-23T01:04:09.852Z,37.43
2019-01-23T01:06:47.384Z,35.20
2019-01-23T01:09:19.103Z,30.07
2019-01-23T01:11:48.581Z,35.73
2019-01-23T01:14:32.020Z,36.87
2019-01-23T01:17:07.343Z,34.47
2019-01-23T01:19:36.810Z,35.53
2019-01-23T01:22:06.767Z,34.13
2019-01-23T01:24:36.179Z,31.80
2019-01-23T01:27:06.073Z,34.90
2019-01-23T01:29:35.469Z,35.97
2019-01-23T01:32:09.488Z,33.33
2019-01-23T01:34:53.686Z,30.10
2019-01-23T01:37:27.676Z,33.07
2019-01-23T01:39:57.072Z,34.67
2019-01-23T01:42:26.492Z,35.83
2019-01-23T01:44:55.919Z,29.60
2019-01-23T01:47:25.368Z,32.87
2019-01-23T01:49:54.843Z,34.63
2019-01-23T01:52:42.622Z,33.03
2019-01-23T01:55:12.032Z,32.90
2019-01-23T01:57:41.503Z,33.27
2019-01-23T02:00:14.001Z,32.00
2019-01-23T02:02:46.087Z,32.17
2019-01-23T02:05:15.587Z,34.30
2019-01-23T02:07:45.004Z,32.20
2019-01-23T02:10:16.613Z,33.37
2019-01-23T02:12:46.157Z,32.67
2019-01-23T02:15:15.729Z,33.70
2019-01-23T02:17:45.144Z,34.40
2019-01-23T02:20:18.152Z,30.50
2019-01-23T02:22:47.834Z,33.57
2019-01-23T02:25:17.743Z,32.43
2019-01-23T02:27:51.141Z,33.10
2019-01-23T02:30:22.220Z,32.67
2019-01-23T02:32:53.279Z,32.37
2019-01-23T02:35:22.937Z,34.03
2019-01-23T02:37:56.955Z,31.33
2019-01-23T02:40:26.352Z,31.47
2019-01-23T02:42:55.750Z,31.70
2019-01-23T02:45:39.230Z,30.97
2019-01-23T02:48:08.757Z,28.80
2019-01-23T02:50:38.199Z,28.43
2019-01-23T02:53:07.690Z,28.87
2019-01-23T02:55:37.230Z,30.90
2019-01-23T02:58:06.660Z,28.37
2019-01-23T03:00:36.069Z,29.63
2019-01-23T03:03:05.518Z,29.03
2019-01-23T03:05:34.922Z,26.23
2019-01-23T03:08:04.323Z,29.37
2019-01-23T03:10:36.586Z,26.93
2019-01-23T03:13:32.636Z,27.30
2019-01-23T03:16:04.818Z,27.30
2019-01-23T03:18:34.287Z,27.40
2019-01-23T03:21:07.546Z,23.53
2019-01-23T03:23:37.173Z,25.53
2019-01-23T03:26:06.594Z,28.40
2019-01-23T03:28:36.201Z,24.27
2019-01-23T03:31:05.641Z,28.00
2019-01-23T03:33:35.077Z,28.40
2019-01-23T03:36:05.200Z,27.30
2019-01-23T03:38:34.706Z,25.53
2019-01-23T03:41:04.156Z,28.07
2019-01-23T03:43:46.478Z,27.20
2019-01-23T03:46:16.024Z,26.67
2019-01-23T03:48:48.379Z,26.47
2019-01-23T03:51:27.415Z,27.37
2019-01-23T03:54:10.456Z,27.57
2019-01-23T03:56:42.547Z,23.20
2019-01-23T03:59:19.705Z,28.03
2019-01-23T04:01:49.169Z,23.83
2019-01-23T04:04:18.737Z,26.43
2019-01-23T04:06:48.175Z,25.10
2019-01-23T04:09:17.604Z,26.00
2019-01-23T04:11:47.082Z,25.43
2019-01-23T04:14:36.571Z,27.03
2019-01-23T04:17:07.690Z,27.77
2019-01-23T04:19:37.127Z,26.53
2019-01-23T04:22:06.691Z,28.57
2019-01-23T04:24:36.188Z,26.83
2019-01-23T04:27:05.687Z,28.77
2019-01-23T04:29:39.718Z,28.27
2019-01-23T04:32:09.209Z,26.77
2019-01-23T04:34:38.667Z,29.20
2019-01-23T04:37:08.126Z,27.97
2019-01-23T04:39:37.538Z,28.13
2019-01-23T04:42:06.985Z,26.93
2019-01-23T04:44:54.465Z,28.53
2019-01-23T04:47:26.535Z,26.67
2019-01-23T04:50:10.200Z,27.20
2019-01-23T04:52:48.475Z,27.20
2019-01-23T04:55:17.915Z,25.37
2019-01-23T04:57:47.352Z,27.47
2019-01-23T05:00:18.392Z,26.13
2019-01-23T05:02:47.823Z,23.87
2019-01-23T05:05:17.246Z,27.63
2019-01-23T05:07:46.721Z,24.73
2019-01-23T05:10:16.151Z,28.27
2019-01-23T05:12:45.652Z,27.20
2019-01-23T05:15:15.195Z,27.87
2019-01-23T05:17:44.668Z,28.30
2019-01-23T05:20:15.620Z,27.07
2019-01-23T05:22:46.709Z,27.10
2019-01-23T05:25:16.214Z,27.20
2019-01-23T05:27:45.755Z,28.13
2019-01-23T05:30:18.379Z,27.73
2019-01-23T05:32:47.857Z,27.83
2019-01-23T05:35:24.834Z,29.00
2019-01-23T05:37:54.338Z,28.73
2019-01-23T05:40:45.793Z,28.73
2019-01-23T05:43:15.378Z,27.70
2019-01-23T05:45:44.865Z,28.80
2019-01-23T05:48:14.349Z,27.53
2019-01-23T05:50:46.555Z,26.90
2019-01-23T05:53:27.908Z,26.43
2019-01-23T05:56:04.380Z,28.60
2019-01-23T05:58:35.491Z,29.17
2019-01-23T06:01:10.990Z,29.00
2019-01-23T06:03:45.238Z,28.60
2019-01-23T06:06:25.537Z,29.67
2019-01-23T06:08:55.006Z,28.20
2019-01-23T06:11:24.452Z,29.23
2019-01-23T06:13:58.500Z,28.37
2019-01-23T06:16:28.011Z,29.03
2019-01-23T06:18:59.008Z,27.67
2019-01-23T06:21:47.822Z,26.67
2019-01-23T06:24:35.705Z,25.50
2019-01-23T06:27:05.136Z,30.23
2019-01-23T06:29:34.855Z,28.60
2019-01-23T06:32:04.588Z,32.03
2019-01-23T06:34:35.088Z,28.87
2019-01-23T06:37:07.166Z,29.37
2019-01-23T06:39:36.604Z,28.37
2019-01-23T06:42:06.033Z,29.80
2019-01-23T06:44:40.034Z,26.00
2019-01-23T06:47:16.890Z,30.57
2019-01-23T06:49:59.240Z,28.30
2019-01-23T06:52:44.009Z,29.23
2019-01-23T06:55:16.102Z,29.73
2019-01-23T06:57:46.145Z,30.03
2019-01-23T07:00:18.244Z,30.17
2019-01-23T07:03:03.585Z,29.10
2019-01-23T07:05:35.418Z,30.13
2019-01-23T07:08:04.828Z,30.73
2019-01-23T07:10:34.284Z,30.50
2019-01-23T07:13:06.358Z,28.27
2019-01-23T07:15:35.811Z,28.83
2019-01-23T07:18:22.109Z,30.77
2019-01-23T07:20:54.839Z,29.73
2019-01-23T07:23:24.516Z,29.70
2019-01-23T07:25:55.630Z,30.43
2019-01-23T07:28:49.139Z,31.97
2019-01-23T07:31:18.852Z,30.70
2019-01-23T07:33:49.569Z,28.57
2019-01-23T07:36:27.009Z,32.63
2019-01-23T07:38:56.568Z,29.23
2019-01-23T07:41:26.077Z,30.77
2019-01-23T07:43:55.517Z,29.87
2019-01-23T07:46:24.944Z,29.43
2019-01-23T07:48:54.416Z,31.73
2019-01-23T07:51:31.627Z,30.73
2019-01-23T07:54:01.054Z,31.77
2019-01-23T07:56:33.415Z,27.37
2019-01-23T07:59:05.457Z,30.13
2019-01-23T08:01:35.031Z,30.97
2019-01-23T08:04:04.599Z,30.33
2019-01-23T08:06:34.027Z,30.63
2019-01-23T08:09:10.915Z,30.73
2019-01-23T08:11:41.104Z,22.10
2019-01-23T08:14:16.195Z,27.07
2019-01-23T08:16:45.673Z,29.63
2019-01-23T08:19:15.159Z,29.37
2019-01-23T08:21:44.589Z,30.40
2019-01-23T08:24:16.587Z,30.60
2019-01-23T08:26:46.204Z,28.90
2019-01-23T08:29:15.622Z,28.50
2019-01-23T08:31:46.815Z,29.00
2019-01-23T08:34:17.589Z,28.20
2019-01-23T08:36:47.069Z,28.27
2019-01-23T08:39:19.366Z,27.83
2019-01-23T08:41:47.895Z,28.37
2019-01-23T08:44:17.333Z,29.10
2019-01-23T08:46:49.120Z,28.53
2019-01-23T08:49:18.603Z,27.40
2019-01-23T08:51:48.031Z,28.40
2019-01-23T08:54:17.502Z,27.90
2019-01-23T08:56:59.908Z,27.70
2019-01-23T08:59:29.463Z,26.70
2019-01-23T09:02:06.611Z,26.23
2019-01-23T09:04:38.608Z,27.17
2019-01-23T09:07:08.112Z,27.57
2019-01-23T09:09:37.486Z,28.90
2019-01-23T09:12:06.905Z,28.50
2019-01-23T09:14:41.621Z,26.87
2019-01-23T09:17:13.533Z,28.10
2019-01-23T09:19:42.939Z,28.53
2019-01-23T09:22:12.459Z,28.73
2019-01-23T09:24:44.964Z,26.23
2019-01-23T09:27:24.193Z,27.50
2019-01-23T09:29:53.700Z,28.23
2019-01-23T09:32:29.159Z,27.10
2019-01-23T09:35:02.302Z,26.63
2019-01-23T09:37:36.564Z,28.43
2019-01-23T09:40:12.010Z,28.23
2019-01-23T09:42:44.585Z,26.23
2019-01-23T09:45:20.130Z,27.67
2019-01-23T09:48:14.470Z,26.73
2019-01-23T09:50:57.838Z,27.87
2019-01-23T09:53:30.471Z,25.83
2019-01-23T09:56:02.289Z,27.10
2019-01-23T09:58:33.373Z,26.20
2019-01-23T10:01:08.540Z,28.13
2019-01-23T10:03:56.159Z,24.77
2019-01-23T10:06:25.647Z,25.40
2019-01-23T10:08:57.943Z,24.67
2019-01-23T10:11:27.362Z,25.87
2019-01-23T10:13:56.780Z,26.63
2019-01-23T10:16:26.274Z,24.07
2019-01-23T10:18:59.072Z,23.80
2019-01-23T10:21:28.602Z,25.00
2019-01-23T10:23:58.166Z,24.93
2019-01-23T10:26:27.624Z,24.27
2019-01-23T10:28:57.122Z,20.53
2019-01-23T10:34:32.454Z,23.87
2019-01-23T10:37:20.358Z,24.47
2019-01-23T10:39:53.736Z,24.87
2019-01-23T10:42:23.284Z,23.97
2019-01-23T10:44:52.752Z,24.30
2019-01-23T10:47:40.554Z,24.67
2019-01-23T10:50:36.518Z,25.73
2019-01-23T10:53:12.017Z,21.57
2019-01-23T10:55:52.655Z,23.93
2019-01-23T10:58:22.173Z,24.93
2019-01-23T11:00:51.599Z,23.33
2019-01-23T11:03:23.880Z,24.47
2019-01-23T11:05:53.278Z,25.97
2019-01-23T11:08:22.743Z,24.70
2019-01-23T11:10:55.166Z,24.03
2019-01-23T11:13:24.658Z,25.60
2019-01-23T11:15:54.142Z,20.77
2019-01-23T11:18:23.708Z,23.20
2019-01-23T11:20:58.878Z,24.23
2019-01-23T11:23:28.396Z,23.90
2019-01-23T11:26:00.506Z,23.87
2019-01-23T11:28:29.952Z,25.33
2019-01-23T11:30:59.372Z,23.13
2019-01-23T11:33:28.885Z,22.30
2019-01-23T11:35:58.359Z,23.83
2019-01-23T11:38:38.876Z,24.53
2019-01-23T11:41:08.287Z,22.37
2019-01-23T11:43:40.580Z,22.03
2019-01-23T11:46:11.703Z,23.10
2019-01-23T11:48:42.913Z,23.87
2019-01-23T11:51:12.401Z,24.20
2019-01-23T11:53:41.649Z,26.13
2019-01-23T11:56:29.455Z,23.63
2019-01-23T11:58:58.917Z,23.40
2019-01-23T12:01:35.441Z,23.03
2019-01-23T12:04:06.680Z,22.93
2019-01-23T12:06:36.140Z,23.97
2019-01-23T12:09:07.269Z,25.80
2019-01-23T12:11:38.386Z,22.70
2019-01-23T12:14:07.883Z,24.70
2019-01-23T12:16:43.331Z,21.60
2019-01-23T12:19:13.799Z,22.13
2019-01-23T12:21:53.016Z,23.60
2019-01-23T12:24:22.471Z,21.40
2019-01-23T12:27:04.236Z,23.30
2019-01-23T12:29:41.349Z,22.80
2019-01-23T12:32:12.400Z,22.80
2019-01-23T12:34:46.399Z,22.10
2019-01-23T12:37:15.809Z,22.00
2019-01-23T12:39:45.446Z,23.70
2019-01-23T12:42:27.715Z,24.77
2019-01-23T12:44:57.252Z,24.70
2019-01-23T12:47:26.825Z,25.67
2019-01-23T12:49:58.250Z,26.63
2019-01-23T12:52:27.775Z,26.47
2019-01-23T12:54:57.255Z,25.40
2019-01-23T12:57:26.705Z,26.17
2019-01-23T12:59:56.132Z,26.20
2019-01-23T13:02:25.558Z,25.87
2019-01-23T13:04:55.000Z,24.70
2019-01-23T13:07:24.520Z,24.70
2019-01-23T13:09:54.222Z,24.23
2019-01-23T13:12:28.345Z,23.10
2019-01-23T13:14:59.353Z,25.63
2019-01-23T13:17:31.874Z,23.40
2019-01-23T13:20:01.401Z,26.37
2019-01-23T13:22:30.977Z,24.33
2019-01-23T13:25:04.005Z,22.67
2019-01-23T13:27:33.588Z,24.27
2019-01-23T13:30:11.031Z,22.37
2019-01-23T13:32:40.767Z,23.17
2019-01-23T13:35:13.369Z,23.17
2019-01-23T13:37:49.131Z,23.83
2019-01-23T13:40:22.857Z,24.27
2019-01-23T13:42:52.336Z,24.83
2019-01-23T13:45:26.319Z,29.20
2019-01-23T13:47:56.037Z,26.27
2019-01-23T13:50:25.522Z,24.53
2019-01-23T13:52:55.090Z,23.23
2019-01-23T13:55:24.539Z,24.80
2019-01-23T13:57:54.014Z,24.73
2019-01-23T14:00:29.562Z,24.83
2019-01-23T14:03:01.861Z,23.17
2019-01-23T14:05:31.329Z,23.27
2019-01-23T14:08:00.817Z,22.63
2019-01-23T14:10:36.539Z,23.50
2019-01-23T14:13:06.089Z,25.37
2019-01-23T14:15:37.561Z,24.90
2019-01-23T14:18:07.331Z,21.87
2019-01-23T14:20:45.139Z,22.33
2019-01-23T14:23:14.718Z,23.03
2019-01-23T14:25:49.232Z,27.43
2019-01-23T14:28:18.739Z,24.90
2019-01-23T14:30:48.287Z,23.17
2019-01-23T14:33:33.008Z,24.27
2019-01-23T14:36:06.771Z,23.87
2019-01-23T14:38:39.093Z,22.27
2019-01-23T14:41:08.910Z,25.27
2019-01-23T14:43:38.304Z,22.93
2019-01-23T14:46:07.764Z,23.63
2019-01-23T14:48:39.960Z,26.37
2019-01-23T14:51:18.639Z,26.37
2019-01-23T14:53:48.219Z,23.83
2019-01-23T14:56:17.646Z,26.40
2019-01-23T14:58:51.902Z,31.13
2019-01-23T15:01:21.414Z,28.47
2019-01-23T15:04:10.583Z,26.33
2019-01-23T15:06:46.150Z,27.60
2019-01-23T15:09:34.012Z,29.40
2019-01-23T15:12:05.159Z,28.70
2019-01-23T15:14:46.465Z,30.93
2019-01-23T15:17:33.609Z,27.70
2019-01-23T15:20:15.244Z,29.97
2019-01-23T15:22:47.688Z,30.63
2019-01-23T15:25:22.916Z,31.27
2019-01-23T15:27:54.989Z,27.77
2019-01-23T15:30:25.444Z,30.33
2019-01-23T15:33:00.651Z,33.40
2019-01-23T15:35:48.150Z,32.23
2019-01-23T15:38:20.529Z,29.57
2019-01-23T15:40:52.625Z,27.97
2019-01-23T15:43:23.383Z,26.67
2019-01-23T15:45:55.633Z,30.67
2019-01-23T15:48:25.126Z,27.90
2019-01-23T15:50:54.589Z,24.87
2019-01-23T15:53:24.007Z,30.00
2019-01-23T15:55:57.132Z,28.90
2019-01-23T15:58:27.198Z,31.47
2019-01-23T16:00:56.753Z,31.47
2019-01-23T16:03:26.197Z,26.93
2019-01-23T16:05:55.595Z,31.17
2019-01-23T16:08:28.098Z,31.67
2019-01-23T16:10:57.551Z,25.43
2019-01-23T16:13:26.985Z,27.10
2019-01-23T16:16:15.762Z,25.03
2019-01-23T16:18:45.203Z,33.40
2019-01-23T16:21:14.620Z,29.40
2019-01-23T16:23:44.059Z,24.17
2019-01-23T16:26:24.581Z,26.17
2019-01-23T16:28:54.027Z,27.37
2019-01-23T16:31:27.985Z,28.70
2019-01-23T16:33:57.403Z,26.93
2019-01-23T16:36:26.874Z,31.10
2019-01-23T16:38:56.320Z,29.47
2019-01-23T16:41:34.678Z,29.77
2019-01-23T16:44:04.432Z,31.80
2019-01-23T16:46:36.714Z,31.77
2019-01-23T16:49:06.201Z,35.07
2019-01-23T16:51:35.833Z,34.87
2019-01-23T16:54:05.259Z,36.90
2019-01-23T16:56:34.786Z,32.30
2019-01-23T16:59:04.374Z,32.83
2019-01-23T17:01:36.599Z,33.97
2019-01-23T17:04:06.016Z,34.27
2019-01-23T17:06:38.649Z,31.97
2019-01-23T17:09:14.104Z,34.93
2019-01-23T17:11:48.117Z,31.07
2019-01-23T17:14:17.519Z,37.03
2019-01-23T17:16:46.940Z,33.17
2019-01-23T17:19:16.351Z,32.57
2019-01-23T17:21:45.846Z,29.93
2019-01-23T17:24:15.288Z,33.00
2019-01-23T17:26:44.727Z,31.90
2019-01-23T17:29:15.379Z,30.93
2019-01-23T17:31:44.915Z,31.53
2019-01-23T17:34:14.311Z,31.77
2019-01-23T17:36:46.379Z,33.63
2019-01-23T17:39:15.847Z,32.50
2019-01-23T17:41:46.827Z,36.60
2019-01-23T17:44:17.837Z,34.30
2019-01-23T17:46:47.768Z,36.40
2019-01-23T17:49:17.231Z,32.27
2019-01-23T17:51:46.689Z,33.63
2019-01-23T17:54:19.113Z,33.73
2019-01-23T17:56:52.797Z,36.90
2019-01-23T17:59:28.135Z,36.60
2019-01-23T18:02:02.061Z,37.53
2019-01-23T18:04:31.551Z,39.60
2019-01-23T18:07:02.609Z,38.20
2019-01-23T18:09:39.539Z,32.93
2019-01-23T18:12:08.963Z,37.73
2019-01-23T18:14:39.984Z,35.93
2019-01-23T18:17:23.453Z,37.50
2019-01-23T18:19:53.014Z,40.73
2019-01-23T18:22:40.925Z,36.40
2019-01-23T18:25:22.349Z,37.97
2019-01-23T18:28:10.202Z,37.30
2019-01-23T18:31:15.850Z,36.27
2019-01-23T18:33:48.451Z,40.13
2019-01-23T18:36:21.096Z,38.47
2019-01-23T18:38:53.669Z,34.63
2019-01-23T18:41:37.307Z,40.23
2019-01-23T18:44:12.907Z,36.00
2019-01-23T18:46:48.987Z,33.07
2019-01-23T18:49:21.634Z,30.53
2019-01-23T18:51:54.541Z,35.83
2019-01-23T18:54:34.858Z,34.20
2019-01-23T18:57:04.657Z,32.47
2019-01-23T18:59:34.122Z,34.43
2019-01-23T19:02:06.294Z,32.33
2019-01-23T19:04:35.731Z,33.30
2019-01-23T19:07:05.180Z,35.77
2019-01-23T19:09:34.645Z,36.73
2019-01-23T19:12:05.916Z,37.83
2019-01-23T19:14:35.517Z,36.43
2019-01-23T19:17:05.193Z,33.80
2019-01-23T19:19:34.651Z,36.93
2019-01-23T19:22:04.132Z,38.57
2019-01-23T19:24:33.580Z,36.87
2019-01-23T19:27:05.596Z,39.40
2019-01-23T19:29:41.017Z,33.23
2019-01-23T19:32:16.525Z,35.17
2019-01-23T19:34:46.012Z,37.30
2019-01-23T19:37:15.470Z,36.03
2019-01-23T19:39:45.681Z,36.37
2019-01-23T19:42:15.346Z,35.03
2019-01-23T19:44:44.815Z,43.20
2019-01-23T19:47:15.438Z,34.57
2019-01-23T19:49:49.386Z,37.43
2019-01-23T19:52:20.580Z,33.90
2019-01-23T19:54:52.975Z,33.73
2019-01-23T19:57:25.278Z,36.97
2019-01-23T19:59:54.773Z,36.53
2019-01-23T20:02:42.373Z,38.87
2019-01-23T20:05:17.492Z,36.63
2019-01-23T20:07:59.155Z,33.97
2019-01-23T20:10:30.176Z,36.40
2019-01-23T20:13:10.402Z,33.97
2019-01-23T20:15:42.815Z,35.93
2019-01-23T20:18:15.041Z,37.80
2019-01-23T20:20:47.271Z,33.37
2019-01-23T20:23:16.803Z,36.67
2019-01-23T20:25:46.228Z,36.53
2019-01-23T20:28:17.276Z,36.33
2019-01-23T20:31:06.121Z,32.90
2019-01-23T20:33:35.576Z,33.70
2019-01-23T20:36:04.971Z,31.10
2019-01-23T20:38:34.485Z,29.87
2019-01-23T20:41:07.293Z,36.50
2019-01-23T20:43:36.740Z,34.77
2019-01-23T20:46:07.726Z,32.10
2019-01-23T20:48:37.340Z,29.83
2019-01-23T20:51:06.761Z,33.27
2019-01-23T20:53:36.200Z,32.13
2019-01-23T20:56:05.736Z,34.90
2019-01-23T20:58:35.156Z,34.20
2019-01-23T21:01:04.604Z,33.03
2019-01-23T21:03:35.138Z,31.57
2019-01-23T21:06:06.445Z,31.43
2019-01-23T21:08:35.890Z,33.43
2019-01-23T21:11:24.700Z,32.00
2019-01-23T21:13:54.098Z,33.90
2019-01-23T21:16:28.659Z,33.50
2019-01-23T21:18:58.074Z,29.53
2019-01-23T21:21:27.591Z,30.37
2019-01-23T21:23:57.083Z,32.00
2019-01-23T21:26:26.651Z,33.37
2019-01-23T21:28:56.187Z,32.13
2019-01-23T21:31:25.705Z,34.00
2019-01-23T21:33:55.132Z,34.33
2019-01-23T21:36:24.571Z,32.33
2019-01-23T21:38:54.055Z,32.93
2019-01-23T21:41:26.137Z,30.03
2019-01-23T21:43:55.606Z,30.67
2019-01-23T21:46:26.146Z,35.37
2019-01-23T21:48:55.682Z,32.43
2019-01-23T21:51:25.312Z,32.70
2019-01-23T21:54:14.840Z,32.63
2019-01-23T21:57:03.777Z,32.50
2019-01-23T21:59:42.860Z,35.40
2019-01-23T22:02:21.101Z,29.47
2019-01-23T22:04:56.382Z,31.50
2019-01-23T22:07:25.870Z,31.17
2019-01-23T22:09:55.336Z,31.33
2019-01-23T22:12:24.833Z,32.30
2019-01-23T22:14:54.247Z,28.40
2019-01-23T22:17:33.164Z,31.53
2019-01-23T22:20:08.392Z,31.23
2019-01-23T22:22:37.843Z,32.20
2019-01-23T22:25:09.029Z,30.93
2019-01-23T22:27:38.539Z,33.13
2019-01-23T22:30:11.097Z,29.33
2019-01-23T22:32:40.634Z,32.47
2019-01-23T22:35:12.931Z,30.80
2019-01-23T22:38:00.061Z,29.53
2019-01-23T22:40:29.498Z,35.67
2019-01-23T22:43:00.605Z,33.33
2019-01-23T22:45:49.406Z,30.03
2019-01-23T22:48:23.587Z,34.67
2019-01-23T22:50:57.591Z,37.60
2019-01-23T22:53:27.050Z,35.60
2019-01-23T22:56:17.532Z,33.57
2019-01-23T22:58:59.899Z,34.10
2019-01-23T23:01:29.418Z,32.37
2019-01-23T23:04:03.475Z,29.80
2019-01-23T23:06:31.646Z,32.10
2019-01-23T23:09:01.100Z,32.77
2019-01-23T23:11:30.650Z,32.70
2019-01-23T23:14:00.066Z,31.60
2019-01-23T23:16:32.274Z,31.53
2019-01-23T23:19:03.323Z,34.20
2019-01-23T23:21:35.531Z,31.53
2019-01-23T23:24:04.942Z,34.93
2019-01-23T23:26:34.521Z,35.20
2019-01-23T23:29:22.300Z,32.77
2019-01-23T23:31:53.394Z,35.13
2019-01-23T23:34:25.650Z,33.87
2019-01-23T23:36:55.166Z,35.13
2019-01-23T23:39:25.239Z,33.20
2019-01-23T23:41:56.276Z,31.07
2019-01-23T23:44:25.823Z,33.93
2019-01-23T23:47:14.694Z,34.67
2019-01-23T23:49:44.142Z,33.97
2019-01-23T23:52:39.250Z,34.47
2019-01-23T23:55:12.629Z,30.17
2019-01-23T23:57:44.926Z,33.03
